sensor_id;sensor_type;location;lat;lon;timestamp;P1;P2;P0
84648;PMS5003;76539;52.392;16.888;2024-03-29T00:05:09;10.198273867493027;7.138791707245119;2.0396547734986052
84648;PMS5003;76539;52.392;16.888;2024-03-29T00:20:09;10.156457261227416;10.156457261227416;4.0625829044909665
84648;PMS5003;76539;52.392;16.888;2024-03-29T00:40:09;9.08999235861251;9.08999235861251;4.039996603827783
84648;PMS5003;76539;52.392;16.888;2024-03-29T00:55:10;9.02481004381469;9.02481004381469;3.0082700146048964
84648;PMS5003;76539;52.392;16.888;2024-03-29T01:10:10;9.022233274514496;9.022233274514496;3.007411091504832
84648;PMS5003;76539;52.392;16.888;2024-03-29T01:25:10;10.046922708010975;10.046922708010975;4.01876908320439
84648;PMS5003;76539;52.392;16.888;2024-03-29T01:40:09;11.103921279930729;11.103921279930729;3.0283421672538355
84648;PMS5003;76539;52.392;16.888;2024-03-29T01:55:10;7.102384768421382;7.102384768421382;2.0292527909775377
84648;PMS5003;76539;52.392;16.888;2024-03-29T02:10:09;10.198273867493027;10.198273867493027;2.0396547734986052
84648;PMS5003;76539;52.392;16.888;2024-03-29T02:25:09;9.177032027324609;9.177032027324609;2.0393404505165798
84648;PMS5003;76539;52.392;16.888;2024-03-29T02:40:09;7.111391563664758;7.111391563664758;1.0159130805235368
84648;PMS5003;76539;52.392;16.888;2024-03-29T02:55:09;5.0574052694867255;5.0574052694867255;1.011481053897345
84648;PMS5003;76539;52.392;16.888;2024-03-29T03:10:09;6.0318859433282395;6.0318859433282395;3.0159429716641197
84648;PMS5003;76539;52.392;16.888;2024-03-29T03:25:09;7.962781614116577;7.962781614116577;2.9860431052937164
84648;PMS5003;76539;52.392;16.888;2024-03-29T03:40:09;14.808046015609984;14.808046015609984;2.9616092031219967
84648;PMS5003;76539;52.392;16.888;2024-03-29T03:55:09;7.859886785552224;7.859886785552224;2.947457544582084
84648;PMS5003;76539;52.392;16.888;2024-03-29T04:10:09;8.811128816850216;8.811128816850216;2.9370429389500723
84648;PMS5003;76539;52.392;16.888;2024-03-29T04:25:09;11.705723060174313;11.705723060174313;3.9019076867247704
84648;PMS5003;76539;52.392;16.888;2024-03-29T04:40:09;8.756519971380607;8.756519971380607;3.8917866539469363
84648;PMS5003;76539;52.392;16.888;2024-03-29T04:55:09;6.794571636534497;6.794571636534497;1.941306181866999
84648;PMS5003;76539;52.392;16.888;2024-03-29T05:10:09;8.740757861115167;8.740757861115167;4.855976589508425
84648;PMS5003;76539;52.392;16.888;2024-03-29T05:25:09;10.704624483963386;6.812033762522154;2.9194430410809233
84648;PMS5003;76539;52.392;16.888;2024-03-29T05:40:09;9.834388341169275;9.834388341169275;3.93375533646771
84648;PMS5003;76539;52.392;16.888;2024-03-29T05:55:09;10.980646234374683;10.980646234374683;3.992962267045339
84648;PMS5003;76539;52.392;16.888;2024-03-29T06:10:09;9.105296656321242;9.105296656321242;4.046798513920552
84648;PMS5003;76539;52.392;16.888;2024-03-29T06:25:10;11.21002163410879;11.21002163410879;6.11455725496843
84648;PMS5003;76539;52.392;16.888;2024-03-29T06:40:10;8.208501795489186;8.208501795489186;3.078188173308445
84648;PMS5003;76539;52.392;16.888;2024-03-29T06:55:10;11.418693281882252;11.418693281882252;6.2283781537539555
84648;PMS5003;76539;52.392;16.888;2024-03-29T07:10:09;10.521960664145983;10.521960664145983;4.208784265658393
84648;PMS5003;76539;52.392;16.888;2024-03-29T07:25:09;11.694045578359617;8.504760420625177;3.189285157734441
84648;PMS5003;76539;52.392;16.888;2024-03-29T07:40:09;12.85905704832838;12.85905704832838;3.214764262082095
84648;PMS5003;76539;52.392;16.888;2024-03-29T07:55:09;11.969584878504701;11.969584878504701;4.352576319456255
84648;PMS5003;76539;52.392;16.888;2024-03-29T08:10:09;5.480198492847141;5.480198492847141;1.096039698569428
84648;PMS5003;76539;52.392;16.888;2024-03-29T08:25:09;7.753355718466552;7.753355718466552;1.1076222454952218
84648;PMS5003;76539;52.392;16.888;2024-03-29T08:40:09;11.113901208228087;5.556950604114044;2.2227802416456175
84648;PMS5003;76539;52.392;16.888;2024-03-29T08:55:09;6.6528416423509364;6.6528416423509364;1.1088069403918228
84648;PMS5003;76539;52.392;16.888;2024-03-29T09:10:09;6.693105860619534;6.693105860619534;1.115517643436589
84648;PMS5003;76539;52.392;16.888;2024-03-29T09:25:09;6.729851466627949;6.729851466627949;2.243283822209316
84648;PMS5003;76539;52.392;16.888;2024-03-29T09:40:09;6.802134677297405;6.802134677297405;1.1336891128829008
84648;PMS5003;76539;52.392;16.888;2024-03-29T09:55:09;5.7065212397345375;5.7065212397345375;2.282608495893815
84648;PMS5003;76539;52.392;16.888;2024-03-29T10:10:09;4.563126197618398;4.563126197618398;1.1407815494045994
84648;PMS5003;76539;52.392;16.888;2024-03-29T10:25:09;4.568690517099633;4.568690517099633;1.1421726292749081
84648;PMS5003;76539;52.392;16.888;2024-03-29T10:40:09;5.724071329422469;5.724071329422469;0.0
84648;PMS5003;76539;52.392;16.888;2024-03-29T10:55:09;4.587551232955271;4.587551232955271;0.0
84648;PMS5003;76539;52.392;16.888;2024-03-29T11:10:09;3.4479168834262794;3.4479168834262794;0.0
84648;PMS5003;76539;52.392;16.888;2024-03-29T11:25:09;9.200250942950861;4.6001254714754305;0.0
84648;PMS5003;76539;52.392;16.888;2024-03-29T11:40:09;5.764965148877797;5.764965148877797;1.1529930297755595
84648;PMS5003;76539;52.392;16.888;2024-03-29T11:55:09;12.640823648280318;5.745828931036509;1.1491657862073017
84648;PMS5003;76539;52.392;16.888;2024-03-29T12:10:09;5.742326173614495;5.742326173614495;1.148465234722899
84648;PMS5003;76539;52.392;16.888;2024-03-29T12:25:10;4.602351991190523;4.602351991190523;1.1505879977976308
84648;PMS5003;76539;52.392;16.888;2024-03-29T12:55:10;5.774273270946649;5.774273270946649;2.3097093083786597
84648;PMS5003;76539;52.392;16.888;2024-03-29T13:10:09;3.4775214751489463;3.4775214751489463;0.0
84648;PMS5003;76539;52.392;16.888;2024-03-29T13:25:09;4.6086667316008105;4.6086667316008105;0.0
84648;PMS5003;76539;52.392;16.888;2024-03-29T13:40:09;4.588794238557492;4.588794238557492;0.0
84648;PMS5003;76539;52.392;16.888;2024-03-29T13:55:09;4.590373693457753;4.590373693457753;1.1475934233644383
84648;PMS5003;76539;52.392;16.888;2024-03-29T14:10:09;3.442864801913588;3.442864801913588;0.0
84648;PMS5003;76539;52.392;16.888;2024-03-29T14:25:09;3.4537622789285534;3.4537622789285534;0.0
84648;PMS5003;76539;52.392;16.888;2024-03-29T14:40:09;5.785394008266446;5.785394008266446;2.3141576033065787
84648;PMS5003;76539;52.392;16.888;2024-03-29T14:55:09;5.769629064641172;5.769629064641172;1.1539258129282344
84648;PMS5003;76539;52.392;16.888;2024-03-29T15:10:09;13.841848193023202;9.227898795348802;1.1534873494186002
84648;PMS5003;76539;52.392;16.888;2024-03-29T15:25:09;5.777947397232011;5.777947397232011;1.1555894794464023
84648;PMS5003;76539;52.392;16.888;2024-03-29T15:40:09;3.45359598682343;3.45359598682343;0.0
84648;PMS5003;76539;52.392;16.888;2024-03-29T15:55:09;9.189517242530744;9.189517242530744;1.148689655316343
84648;PMS5003;76539;52.392;16.888;2024-03-29T16:10:09;5.729622495439474;5.729622495439474;0.0
84648;PMS5003;76539;52.392;16.888;2024-03-29T16:25:09;6.888094209657883;6.888094209657883;2.296031403219294
84648;PMS5003;76539;52.392;16.888;2024-03-29T16:40:09;7.993387351244193;7.993387351244193;3.4257374362475113
84648;PMS5003;76539;52.392;16.888;2024-03-29T16:55:09;10.230053136611353;10.230053136611353;2.2733451414691896
84648;PMS5003;76539;52.392;16.888;2024-03-29T17:10:09;6.7930907380012675;6.7930907380012675;2.264363579333756
84648;PMS5003;76539;52.392;16.888;2024-03-29T17:25:09;11.288895446701698;11.288895446701698;2.2577790893403398
84648;PMS5003;76539;52.392;16.888;2024-03-29T17:40:09;11.253275945380514;11.253275945380514;3.375982783614154
84648;PMS5003;76539;52.392;16.888;2024-03-29T17:55:10;20.17637717740116;20.17637717740116;7.8463689023226735
84648;PMS5003;76539;52.392;16.888;2024-03-29T18:10:10;21.215286965715606;18.98209886406133;11.16594050827137
84648;PMS5003;76539;52.392;16.888;2024-03-29T18:25:10;18.947083725812515;18.947083725812515;10.030809031312508
84648;PMS5003;76539;52.392;16.888;2024-03-29T18:40:10;22.29134374324056;20.062209368916506;7.801970310134196
84648;PMS5003;76539;52.392;16.888;2024-03-29T18:55:10;14.4653559696563;14.4653559696563;5.563598449867808
84648;PMS5003;76539;52.392;16.888;2024-03-29T19:10:09;26.645276601903262;19.983957451427447;7.771539008888452
84648;PMS5003;76539;52.392;16.888;2024-03-29T19:25:09;16.609238041072604;16.609238041072604;11.07282536071507
84648;PMS5003;76539;52.392;16.888;2024-03-29T19:40:09;11.024333738529474;11.024333738529474;6.6146002431176845
84648;PMS5003;76539;52.392;16.888;2024-03-29T19:55:09;15.347567272380955;15.347567272380955;5.4812740258503405
84648;PMS5003;76539;52.392;16.888;2024-03-29T20:10:09;18.55437383592469;18.55437383592469;5.457168775271968
84648;PMS5003;76539;52.392;16.888;2024-03-29T20:25:09;33.70584698805302;14.13471002724804;7.610997706979714
84648;PMS5003;76539;52.392;16.888;2024-03-29T20:40:09;28.11749554497766;23.791726999596484;16.22163204517942
84648;PMS5003;76539;52.392;16.888;2024-03-29T20:55:09;20.49142886068743;20.49142886068743;6.470977534953926
84648;PMS5003;76539;52.392;16.888;2024-03-29T21:10:09;18.29035555228208;18.29035555228208;8.60722614225039
84648;PMS5003;76539;52.392;16.888;2024-03-29T21:25:09;9.665969760555457;9.665969760555457;5.369983200308588
84648;PMS5003;76539;52.392;16.888;2024-03-29T21:40:09;22.491461598330527;13.923285751347468;7.4971538661101755
84648;PMS5003;76539;52.392;16.888;2024-03-29T21:55:09;28.837198708615627;19.224799139077085;8.544355172923149
84648;PMS5003;76539;52.392;16.888;2024-03-29T22:10:09;11.695434536785646;11.695434536785646;7.4425492506817745
84648;PMS5003;76539;52.392;16.888;2024-03-29T22:25:09;16.949004149953353;16.949004149953353;6.3558765562325075
84648;PMS5003;76539;52.392;16.888;2024-03-29T22:40:09;16.899900099481755;16.899900099481755;7.393706293523268
84648;PMS5003;76539;52.392;16.888;2024-03-29T22:55:09;13.687200935951182;13.687200935951182;8.422892883662266
84648;PMS5003;76539;52.392;16.888;2024-03-29T23:10:09;27.240242694993352;19.906331200187452;11.52471806326642
84648;PMS5003;76539;52.392;16.888;2024-03-29T23:25:09;13.604712399374725;13.604712399374725;6.279098030480642
84648;PMS5003;76539;52.392;16.888;2024-03-29T23:40:09;25.07450859564063;25.07450859564063;10.447711914850261
